Time;durP1;ratioP1;P1;durP2;ratioP2;P2;SDS_P1;SDS_P2;PMS_P1;PMS_P2;Temp;Humidity;BMP_temperature;BMP_pressure;BME280_temperature;BME280_humidity;BME280_pressure;Samples;Min_cycle;Max_cycle;Signal;HPM_P1;HPM_P2
2023/02/16 00:01:00;;;;;;;;;;;;;;;21.69;18.97;99059.63;5103320;28;19920;-87
2023/02/16 00:03:26;;;;;;;;;;;;;;;21.37;18.76;99057.91;5112868;27;20378;-86
2023/02/16 00:05:52;;;;;;;;;;;;;;;21.00;19.30;99061.69;5113469;28;19984;-87
2023/02/16 00:08:18;;;;;;;;;;;;;;;21.16;19.57;99061.41;5105648;28;20296;-86
2023/02/16 00:13:46;;;;;;;;;;;;;;;21.60;19.00;99064.00;5107501;28;19994;-86
2023/02/16 00:16:17;;;;;;;;;;;;;;;21.37;18.88;99067.09;5109520;28;19916;-86
2023/02/16 00:18:43;;;;;;;;;;;;;;;21.33;19.50;99060.69;5106881;27;20374;-86
2023/02/16 00:21:09;;;;;;;;;;;;;;;21.31;19.18;99049.91;5114958;28;19923;-86
2023/02/16 00:23:35;;;;;;;;;;;;;;;21.34;19.35;99051.09;5114754;27;20006;-86
2023/02/16 00:26:02;;;;;;;;;;;;;;;21.17;18.93;99044.25;5101279;27;20372;-86
2023/02/16 00:28:28;;;;;;;;;;;;;;;21.15;19.22;99052.22;5102583;28;19928;-86
2023/02/16 00:30:54;;;;;;;;;;;;;;;21.50;19.00;99048.78;5108683;28;20385;-86
2023/02/16 00:33:20;;;;;;;;;;;;;;;21.71;18.85;99048.84;5099878;27;20017;-86
2023/02/16 00:35:46;;;;;;;;;;;;;;;21.64;18.47;99045.22;5112495;28;19924;-86
2023/02/16 00:38:13;;;;;;;;;;;;;;;21.55;18.80;99039.22;5108419;27;19991;-86
2023/02/16 00:40:40;;;;;;;;;;;;;;;21.54;18.72;99035.63;5114221;27;19926;-86
2023/02/16 00:43:06;;;;;;;;;;;;;;;21.67;18.21;99024.88;5109990;27;20347;-86
2023/02/16 00:45:36;;;;;;;;;;;;;;;21.63;18.52;99022.09;5101606;28;19926;-86
2023/02/16 00:48:02;;;;;;;;;;;;;;;21.70;18.06;99024.91;5109420;27;19920;-85
2023/02/16 00:50:32;;;;;;;;;;;;;;;21.45;18.44;99024.00;5105765;28;19981;-86
2023/02/16 00:52:59;;;;;;;;;;;;;;;21.45;18.36;99023.22;5115180;28;19916;-86
2023/02/16 00:55:27;;;;;;;;;;;;;;;20.92;18.88;99025.72;5113181;27;20394;-85
2023/02/16 00:58:11;;;;;;;;;;;;;;;21.10;18.37;99018.28;5115483;28;20399;-86
2023/02/16 01:00:41;;;;;;;;;;;;;;;21.01;18.49;99017.78;5102838;28;20551;-86
2023/02/16 01:03:11;;;;;;;;;;;;;;;20.94;18.67;99017.75;5107483;28;19924;-86
2023/02/16 01:05:37;;;;;;;;;;;;;;;21.07;18.67;99016.28;5109793;28;19963;-86
2023/02/16 01:11:08;;;;;;;;;;;;;;;21.20;18.18;99011.94;5103977;28;19939;-86
2023/02/16 01:13:41;;;;;;;;;;;;;;;21.17;18.39;99002.34;5106862;28;19966;-86
2023/02/16 01:16:11;;;;;;;;;;;;;;;21.16;18.12;98997.16;5101111;28;19916;-86
2023/02/16 01:18:37;;;;;;;;;;;;;;;21.30;17.75;98997.22;5107976;27;20379;-86
2023/02/16 01:21:03;;;;;;;;;;;;;;;21.06;17.91;98997.91;5096543;28;19918;-87
2023/02/16 01:23:29;;;;;;;;;;;;;;;20.56;18.35;98983.63;5089894;28;19920;-86
2023/02/16 01:25:55;;;;;;;;;;;;;;;20.40;19.05;98990.69;5109505;28;20286;-86
2023/02/16 01:28:22;;;;;;;;;;;;;;;20.61;18.42;98983.28;5094719;28;19919;-86
2023/02/16 01:30:49;;;;;;;;;;;;;;;20.34;18.75;98969.94;5109958;28;19931;-86
2023/02/16 01:33:15;;;;;;;;;;;;;;;20.06;19.41;98986.41;5108739;28;19920;-86
2023/02/16 01:35:42;;;;;;;;;;;;;;;20.11;19.04;98978.50;5107633;28;19924;-86
2023/02/16 01:38:15;;;;;;;;;;;;;;;19.93;19.46;98967.19;5108723;27;19920;-86
2023/02/16 01:40:45;;;;;;;;;;;;;;;20.13;19.00;98966.94;5111108;28;19920;-86
2023/02/16 01:43:14;;;;;;;;;;;;;;;20.10;19.32;98970.50;5120282;27;20367;-86
2023/02/16 01:45:42;;;;;;;;;;;;;;;20.15;19.55;98967.38;5110740;28;19920;-86
2023/02/16 01:48:23;;;;;;;;;;;;;;;20.29;19.32;98965.53;5106566;28;19968;-86
2023/02/16 01:50:59;;;;;;;;;;;;;;;20.66;19.49;98968.16;5105285;28;19927;-85
2023/02/16 01:53:29;;;;;;;;;;;;;;;20.96;18.31;98959.53;5111322;28;19916;-86
2023/02/16 01:55:59;;;;;;;;;;;;;;;21.10;18.02;98956.84;5097337;28;19920;-86
2023/02/16 01:58:25;;;;;;;;;;;;;;;21.20;18.16;98951.31;5104542;28;19923;-86
2023/02/16 02:00:51;;;;;;;;;;;;;;;21.05;17.81;98952.44;5112104;28;19919;-86
2023/02/16 02:06:07;;;;;;;;;;;;;;;20.98;18.25;98955.16;5101084;28;19932;-86
2023/02/16 02:08:37;;;;;;;;;;;;;;;21.04;18.32;98953.63;5110431;28;19945;-86
2023/02/16 02:11:09;;;;;;;;;;;;;;;20.88;18.05;98946.75;5111936;28;19959;-86
2023/02/16 02:13:41;;;;;;;;;;;;;;;20.86;18.36;98949.94;5110201;28;19926;-86
2023/02/16 02:16:09;;;;;;;;;;;;;;;20.75;18.47;98948.28;5108227;28;20626;-85
2023/02/16 02:18:35;;;;;;;;;;;;;;;20.82;18.49;98931.59;5100606;28;20011;-86
2023/02/16 02:24:07;;;;;;;;;;;;;;;20.06;19.19;98945.41;5117971;28;19969;-86
2023/02/16 02:26:33;;;;;;;;;;;;;;;20.29;18.56;98942.41;5113766;28;20064;-86
2023/02/16 02:29:18;;;;;;;;;;;;;;;20.12;19.40;98943.84;5116282;27;19965;-86
2023/02/16 02:32:09;;;;;;;;;;;;;;;19.69;19.79;98942.69;5106917;28;20303;-86
2023/02/16 02:34:41;;;;;;;;;;;;;;;19.89;19.41;98937.69;5127797;27;19919;-86
2023/02/16 02:37:18;;;;;;;;;;;;;;;19.91;19.81;98938.09;5112172;27;20659;-86
2023/02/16 02:39:59;;;;;;;;;;;;;;;20.04;19.77;98936.63;5106186;27;20290;-86
2023/02/16 02:42:32;;;;;;;;;;;;;;;19.94;20.00;98934.53;5113090;28;20280;-85
2023/02/16 02:45:03;;;;;;;;;;;;;;;20.24;19.84;98931.63;5100853;28;20462;-85
2023/02/16 02:47:39;;;;;;;;;;;;;;;20.63;19.51;98938.25;5106037;28;20010;-85
2023/02/16 02:50:24;;;;;;;;;;;;;;;20.86;19.21;98935.19;5124923;27;19924;-86
2023/02/16 02:52:50;;;;;;;;;;;;;;;20.95;18.87;98941.19;5108889;27;19935;-85
2023/02/16 03:00:48;;;;;;;;;;;;;;;21.27;17.82;98940.16;5115748;28;19934;-86
2023/02/16 03:03:31;;;;;;;;;;;;;;;21.17;17.81;98935.34;5115407;28;20291;-86
2023/02/16 03:06:00;;;;;;;;;;;;;;;21.15;17.68;98940.50;5105720;28;19984;-86
2023/02/16 03:08:30;;;;;;;;;;;;;;;20.73;17.53;98929.13;5109792;28;19965;-86
2023/02/16 03:13:46;;;;;;;;;;;;;;;20.50;18.75;98948.13;5114584;27;19927;-86
2023/02/16 03:16:14;;;;;;;;;;;;;;;20.47;18.88;98951.69;5109319;28;19916;-86
2023/02/16 03:29:47;;;;;;;;;;;;;;;20.65;18.46;98956.19;5108687;28;20013;-86
2023/02/16 03:32:14;;;;;;;;;;;;;;;20.55;18.53;98962.53;5109629;28;19920;-86
2023/02/16 03:34:40;;;;;;;;;;;;;;;20.60;18.62;98962.16;5111850;28;19920;-86
2023/02/16 03:37:06;;;;;;;;;;;;;;;20.50;19.41;98964.88;5113849;28;19916;-85
2023/02/16 03:40:26;;;;;;;;;;;;;;;20.57;19.18;98967.69;5107428;28;19972;-85
2023/02/16 03:42:19;;;;;;;;;;;;;;;20.62;18.50;98962.56;5111536;28;19924;-85
2023/02/16 03:44:45;;;;;;;;;;;;;;;20.85;19.13;98953.91;5114715;28;20381;-85
2023/02/16 03:47:11;;;;;;;;;;;;;;;21.00;18.78;98952.81;5111443;28;19915;-85
2023/02/16 03:49:37;;;;;;;;;;;;;;;21.02;18.68;98961.59;5096371;28;19926;-85
2023/02/16 03:52:04;;;;;;;;;;;;;;;21.08;18.55;98967.59;5110524;28;20403;-85
2023/02/16 03:54:30;;;;;;;;;;;;;;;21.18;18.56;98956.50;5115305;28;19919;-85
2023/02/16 03:56:56;;;;;;;;;;;;;;;21.20;18.02;98956.88;5081374;28;19920;-85
2023/02/16 03:59:22;;;;;;;;;;;;;;;21.18;18.39;98953.69;5113212;28;19920;-85
2023/02/16 04:01:48;;;;;;;;;;;;;;;20.99;18.41;98953.19;5109280;28;19927;-85
2023/02/16 04:04:14;;;;;;;;;;;;;;;20.70;18.80;98945.88;5112011;27;19927;-85
2023/02/16 04:06:40;;;;;;;;;;;;;;;20.45;19.23;98940.94;5098491;28;19924;-85
2023/02/16 04:09:06;;;;;;;;;;;;;;;20.69;19.05;98947.84;5099560;28;19927;-85
2023/02/16 04:14:17;;;;;;;;;;;;;;;20.72;18.56;98944.28;5099345;28;20409;-85
2023/02/16 04:16:43;;;;;;;;;;;;;;;20.67;18.79;98945.47;5115108;28;19916;-85
2023/02/16 04:19:10;;;;;;;;;;;;;;;20.54;18.81;98937.78;5114372;28;19920;-85
2023/02/16 04:21:36;;;;;;;;;;;;;;;20.21;19.39;98944.31;5113895;28;19923;-85
2023/02/16 04:24:04;;;;;;;;;;;;;;;19.86;19.55;98953.19;5114471;28;19916;-85
2023/02/16 04:26:31;;;;;;;;;;;;;;;19.63;19.98;98954.56;5112005;28;19927;-85
2023/02/16 04:28:57;;;;;;;;;;;;;;;19.57;20.13;98956.09;5100011;28;20442;-85
2023/02/16 04:31:23;;;;;;;;;;;;;;;19.84;20.08;98952.78;5113811;27;19961;-85
2023/02/16 04:33:49;;;;;;;;;;;;;;;19.88;19.86;98947.25;5115899;27;19920;-85
2023/02/16 04:36:15;;;;;;;;;;;;;;;20.11;19.87;98944.25;5112725;28;19924;-85
2023/02/16 04:38:41;;;;;;;;;;;;;;;20.51;19.36;98941.38;5114106;28;20383;-85
2023/02/16 04:41:07;;;;;;;;;;;;;;;20.87;18.83;98937.56;5105054;28;19920;-85
2023/02/16 04:43:33;;;;;;;;;;;;;;;21.07;18.22;98938.91;5107365;28;19920;-85
2023/02/16 04:45:59;;;;;;;;;;;;;;;20.65;17.41;98933.09;5108196;28;19926;-86
2023/02/16 04:48:25;;;;;;;;;;;;;;;20.08;18.57;98934.66;5115982;27;20287;-86
2023/02/16 04:50:51;;;;;;;;;;;;;;;20.14;18.38;98927.53;5112228;27;19973;-86
2023/02/16 04:53:17;;;;;;;;;;;;;;;20.37;18.75;98928.16;5112869;27;19928;-85
2023/02/16 04:55:44;;;;;;;;;;;;;;;20.52;18.43;98924.22;5101108;27;19955;-86
2023/02/16 04:58:10;;;;;;;;;;;;;;;20.50;18.20;98920.22;5099188;28;19920;-86
2023/02/16 05:00:36;;;;;;;;;;;;;;;20.34;18.59;98919.75;5104999;28;19926;-86
2023/02/16 05:03:02;;;;;;;;;;;;;;;19.82;19.45;98924.50;5090411;28;19927;-86
2023/02/16 05:05:30;;;;;;;;;;;;;;;19.73;19.31;98929.59;5081956;28;19943;-86
2023/02/16 05:07:56;;;;;;;;;;;;;;;19.31;20.02;98927.16;5109187;28;19919;-86
2023/02/16 05:10:22;;;;;;;;;;;;;;;19.71;19.73;98929.19;5112553;27;20305;-84
2023/02/16 05:15:33;;;;;;;;;;;;;;;20.53;18.61;98925.03;5111446;27;19930;-84
2023/02/16 05:17:59;;;;;;;;;;;;;;;20.85;17.88;98926.00;5107635;28;19923;-84
2023/02/16 05:21:28;;;;;;;;;;;;;;;20.95;17.61;98925.25;5108374;28;20371;-84
2023/02/16 05:23:11;;;;;;;;;;;;;;;21.04;17.57;98922.09;5104170;27;20365;-86
2023/02/16 05:25:37;;;;;;;;;;;;;;;20.35;16.86;98919.34;5107004;28;19985;-86
2023/02/16 05:28:04;;;;;;;;;;;;;;;19.88;18.28;98922.16;5084467;28;19920;-87
2023/02/16 05:30:30;;;;;;;;;;;;;;;20.10;18.12;98915.56;5110511;28;20418;-87
2023/02/16 05:32:56;;;;;;;;;;;;;;;20.31;17.50;98915.75;5103444;28;19928;-87
2023/02/16 05:35:22;;;;;;;;;;;;;;;20.34;18.12;98908.59;5102908;28;19930;-87
2023/02/16 05:37:48;;;;;;;;;;;;;;;20.47;17.77;98916.22;5107081;28;19923;-87
2023/02/16 05:40:14;;;;;;;;;;;;;;;20.47;17.25;98918.22;5106340;28;19919;-87
2023/02/16 05:42:40;;;;;;;;;;;;;;;20.41;17.46;98917.81;5103962;28;20901;-84
2023/02/16 05:45:06;;;;;;;;;;;;;;;20.17;18.08;98912.81;5085872;28;19980;-85
2023/02/16 05:47:32;;;;;;;;;;;;;;;20.30;18.45;98927.28;5106283;28;19920;-85
2023/02/16 05:49:58;;;;;;;;;;;;;;;19.50;18.47;98928.16;5103871;28;19934;-85
2023/02/16 05:52:24;;;;;;;;;;;;;;;19.71;18.92;98929.19;5099940;28;19966;-88
2023/02/16 05:54:50;;;;;;;;;;;;;;;20.13;18.39;98925.94;5105729;28;19959;-85
2023/02/16 05:57:16;;;;;;;;;;;;;;;20.44;17.98;98930.19;5112860;27;19972;-90
2023/02/16 05:59:42;;;;;;;;;;;;;;;19.89;17.66;98938.50;5102647;28;19920;-87
2023/02/16 06:02:08;;;;;;;;;;;;;;;19.87;17.91;98932.50;5107459;28;19966;-86
2023/02/16 06:04:35;;;;;;;;;;;;;;;20.07;18.03;98930.25;5112477;28;20366;-86
2023/02/16 06:07:01;;;;;;;;;;;;;;;20.02;17.98;98930.63;5109940;28;20406;-87
2023/02/16 06:09:27;;;;;;;;;;;;;;;19.96;17.87;98929.38;5092932;28;20395;-87
2023/02/16 06:11:53;;;;;;;;;;;;;;;20.23;17.69;98935.59;5092749;28;19920;-87
2023/02/16 06:14:19;;;;;;;;;;;;;;;20.32;17.96;98941.63;5102711;28;19922;-87
2023/02/16 06:16:46;;;;;;;;;;;;;;;20.22;17.89;98937.59;5113380;28;20448;-87
2023/02/16 06:19:13;;;;;;;;;;;;;;;20.02;18.37;98934.22;5113947;28;19938;-86
2023/02/16 06:21:39;;;;;;;;;;;;;;;20.27;17.91;98934.44;5113691;28;19915;-87
2023/02/16 06:24:05;;;;;;;;;;;;;;;20.43;18.15;98929.38;5110880;28;19923;-87
2023/02/16 06:26:31;;;;;;;;;;;;;;;20.43;18.14;98931.34;5093602;28;19916;-87
2023/02/16 06:28:57;;;;;;;;;;;;;;;20.54;18.27;98935.00;5093604;28;19962;-86
2023/02/16 06:31:24;;;;;;;;;;;;;;;20.63;17.71;98936.25;5103151;28;19916;-87
2023/02/16 06:33:50;;;;;;;;;;;;;;;20.06;18.39;98927.88;5095079;28;19955;-87
2023/02/16 06:36:16;;;;;;;;;;;;;;;20.32;18.50;98931.28;5093654;28;19924;-87
2023/02/16 06:38:42;;;;;;;;;;;;;;;20.57;18.44;98932.25;5093520;28;19969;-87
2023/02/16 06:41:08;;;;;;;;;;;;;;;20.77;18.37;98937.53;5094083;28;19965;-87
2023/02/16 06:43:34;;;;;;;;;;;;;;;21.02;18.27;98930.88;5096008;28;20279;-87
2023/02/16 06:46:01;;;;;;;;;;;;;;;21.40;18.17;98940.56;5113665;28;19972;-87
2023/02/16 06:48:27;;;;;;;;;;;;;;;21.56;17.83;98937.44;5113447;28;20375;-87
2023/02/16 06:50:53;;;;;;;;;;;;;;;21.60;17.89;98932.66;5095151;28;19923;-87
2023/02/16 06:53:19;;;;;;;;;;;;;;;21.68;18.19;98942.66;5113678;28;19920;-86
2023/02/16 06:55:46;;;;;;;;;;;;;;;21.54;17.91;98939.84;5113959;28;20279;-86
2023/02/16 06:58:12;;;;;;;;;;;;;;;21.28;18.46;98935.38;5108985;28;19951;-87
2023/02/16 07:00:38;;;;;;;;;;;;;;;21.17;19.36;98929.75;5100459;28;19923;-86
2023/02/16 07:03:04;;;;;;;;;;;;;;;21.43;18.98;98939.00;5113667;28;19916;-87
2023/02/16 07:05:30;;;;;;;;;;;;;;;21.34;19.31;98942.97;5116632;28;19923;-86
2023/02/16 07:07:56;;;;;;;;;;;;;;;21.34;18.97;98944.97;5117330;28;20010;-87
2023/02/16 07:10:22;;;;;;;;;;;;;;;21.30;18.95;98944.97;5117311;28;19939;-87
2023/02/16 07:12:48;;;;;;;;;;;;;;;21.42;19.64;98945.78;5117279;28;19927;-87
2023/02/16 07:15:14;;;;;;;;;;;;;;;21.73;19.25;98950.63;5112214;28;19920;-86
2023/02/16 07:17:40;;;;;;;;;;;;;;;21.95;18.71;98949.50;5096508;28;20367;-87
2023/02/16 07:20:06;;;;;;;;;;;;;;;22.19;18.87;98948.69;5096700;28;19920;-87
2023/02/16 07:22:32;;;;;;;;;;;;;;;22.35;18.60;98939.88;5108349;28;19964;-86
2023/02/16 07:24:59;;;;;;;;;;;;;;;22.35;18.90;98943.50;5117081;28;19919;-87
2023/02/16 07:27:25;;;;;;;;;;;;;;;22.48;19.04;98944.66;5116973;28;19916;-87
2023/02/16 07:29:51;;;;;;;;;;;;;;;22.49;18.80;98937.06;5117484;28;19961;-87
2023/02/16 07:32:17;;;;;;;;;;;;;;;21.96;19.41;98937.13;5105570;28;19921;-86
2023/02/16 07:34:44;;;;;;;;;;;;;;;21.49;20.11;98943.81;5116941;28;20321;-86
2023/02/16 07:37:10;;;;;;;;;;;;;;;21.51;20.53;98937.81;5116128;28;20457;-86
2023/02/16 07:39:36;;;;;;;;;;;;;;;21.39;20.66;98946.56;5114819;28;20295;-86
2023/02/16 07:42:02;;;;;;;;;;;;;;;21.65;20.37;98944.25;5116836;28;19911;-86
2023/02/16 07:44:28;;;;;;;;;;;;;;;21.32;20.83;98944.56;5116295;28;20419;-86
2023/02/16 07:46:54;;;;;;;;;;;;;;;21.79;20.57;98947.06;5098099;28;20014;-86
2023/02/16 07:49:20;;;;;;;;;;;;;;;21.99;20.81;98948.28;5111557;28;19968;-86
2023/02/16 07:51:46;;;;;;;;;;;;;;;21.49;21.04;98948.59;5116249;28;20298;-86
2023/02/16 07:54:13;;;;;;;;;;;;;;;21.74;20.85;98950.25;5116483;28;19922;-86
2023/02/16 07:56:39;;;;;;;;;;;;;;;20.76;22.52;98952.66;5117343;27;19920;-86
2023/02/16 07:59:05;;;;;;;;;;;;;;;21.55;21.69;98947.00;5116260;28;21673;-86
2023/02/16 08:01:31;;;;;;;;;;;;;;;21.33;21.73;98943.38;5097692;28;20007;-86
2023/02/16 08:03:57;;;;;;;;;;;;;;;21.46;22.13;98938.19;5116318;28;19915;-87
2023/02/16 08:06:23;;;;;;;;;;;;;;;20.55;22.97;98945.78;5109922;28;20376;-86
2023/02/16 08:08:49;;;;;;;;;;;;;;;21.66;21.72;98937.44;5095768;28;20002;-86
2023/02/16 08:11:16;;;;;;;;;;;;;;;22.41;20.94;98939.06;5096054;28;19923;-86
2023/02/16 08:13:43;;;;;;;;;;;;;;;22.81;20.85;98940.59;5108487;28;20295;-86
2023/02/16 08:16:10;;;;;;;;;;;;;;;23.00;20.50;98939.34;5115671;28;19980;-86
2023/02/16 08:18:37;;;;;;;;;;;;;;;23.38;20.55;98941.97;5116170;28;19923;-86
2023/02/16 08:21:19;;;;;;;;;;;;;;;21.43;22.58;98947.38;5115951;28;20379;-86
2023/02/16 08:23:46;;;;;;;;;;;;;;;22.31;21.44;98945.47;5107936;28;20011;-86
2023/02/16 08:26:13;;;;;;;;;;;;;;;23.09;20.88;98940.50;5095430;28;19956;-86
2023/02/16 08:28:44;;;;;;;;;;;;;;;22.65;20.90;98940.25;5095794;28;19976;-86
2023/02/16 08:31:15;;;;;;;;;;;;;;;22.19;21.50;98951.50;5112399;28;19916;-86
2023/02/16 08:33:42;;;;;;;;;;;;;;;20.53;23.54;98947.34;5113775;28;19919;-86
2023/02/16 08:36:28;;;;;;;;;;;;;;;21.01;23.19;98945.19;5115522;28;19968;-86
2023/02/16 08:38:54;;;;;;;;;;;;;;;20.98;22.96;98949.56;5114987;28;19998;-86
2023/02/16 08:41:22;;;;;;;;;;;;;;;20.49;23.61;98944.53;5101532;28;19923;-86
2023/02/16 08:43:50;;;;;;;;;;;;;;;21.64;23.26;98944.63;5102243;28;19920;-86
2023/02/16 08:46:16;;;;;;;;;;;;;;;21.55;23.39;98942.22;5115131;28;19923;-86
2023/02/16 08:48:44;;;;;;;;;;;;;;;22.82;21.55;98927.41;5115231;28;19951;-86
2023/02/16 08:51:14;;;;;;;;;;;;;;;22.84;21.59;98931.41;5115161;28;19939;-86
2023/02/16 08:53:40;;;;;;;;;;;;;;;22.95;21.40;98918.16;5115222;28;19915;-86
2023/02/16 08:56:08;;;;;;;;;;;;;;;22.99;21.72;98920.94;5115243;28;19915;-87
2023/02/16 08:58:36;;;;;;;;;;;;;;;23.63;21.28;98924.22;5097904;28;19938;-87
2023/02/16 09:01:09;;;;;;;;;;;;;;;24.14;20.97;98921.44;5094758;28;19923;-87
2023/02/16 09:03:37;;;;;;;;;;;;;;;24.19;20.59;98923.00;5097927;28;19920;-87
2023/02/16 09:06:04;;;;;;;;;;;;;;;23.71;21.13;98914.56;5115019;28;19985;-87
2023/02/16 09:08:31;;;;;;;;;;;;;;;23.69;21.17;98916.97;5114954;28;20390;-87
2023/02/16 09:11:01;;;;;;;;;;;;;;;23.95;21.72;98916.38;5115133;28;19942;-87
2023/02/16 09:13:27;;;;;;;;;;;;;;;23.04;22.14;98912.09;5115013;28;19951;-87
2023/02/16 09:15:53;;;;;;;;;;;;;;;23.00;22.43;98922.53;5095869;28;19947;-86
2023/02/16 09:18:19;;;;;;;;;;;;;;;20.19;26.12;98929.97;5094571;28;20455;-86
2023/02/16 09:20:45;;;;;;;;;;;;;;;18.72;28.02;98926.44;5099368;28;19911;-86
2023/02/16 09:23:14;;;;;;;;;;;;;;;18.11;29.08;98923.94;5114705;28;20006;-86
2023/02/16 09:25:40;;;;;;;;;;;;;;;18.44;29.00;98924.03;5114417;28;20008;-86
2023/02/16 09:28:08;;;;;;;;;;;;;;;18.83;28.33;98924.59;5095057;28;19927;-86
2023/02/16 09:30:37;;;;;;;;;;;;;;;20.26;25.39;98918.88;5094281;28;19916;-86
2023/02/16 09:33:03;;;;;;;;;;;;;;;21.26;24.67;98921.78;5095786;28;19941;-86
2023/02/16 09:35:29;;;;;;;;;;;;;;;20.20;26.32;98917.63;5114395;28;20459;-86
2023/02/16 09:37:56;;;;;;;;;;;;;;;19.62;26.43;98925.91;5114657;28;19939;-86
2023/02/16 09:40:23;;;;;;;;;;;;;;;20.70;26.04;98918.75;5114393;28;19916;-86
2023/02/16 09:42:57;;;;;;;;;;;;;;;20.50;26.02;98909.06;5114471;28;19916;-86
2023/02/16 09:45:25;;;;;;;;;;;;;;;21.14;24.54;98910.19;5114139;28;19934;-86
2023/02/16 09:47:53;;;;;;;;;;;;;;;20.91;24.69;98912.47;5113502;28;19916;-85
2023/02/16 09:50:22;;;;;;;;;;;;;;;22.08;23.93;98911.53;5114218;28;20359;-85
2023/02/16 09:52:48;;;;;;;;;;;;;;;20.49;26.24;98913.06;5114097;28;20019;-85
2023/02/16 09:55:16;;;;;;;;;;;;;;;21.92;24.24;98916.72;5110457;28;19998;-86
2023/02/16 09:57:55;;;;;;;;;;;;;;;20.84;25.62;98913.22;5101983;28;19927;-86
2023/02/16 10:00:27;;;;;;;;;;;;;;;19.71;26.53;98906.88;5114250;28;19946;-86
2023/02/16 10:03:02;;;;;;;;;;;;;;;21.80;24.29;98908.69;5101457;28;19912;-86
2023/02/16 10:05:31;;;;;;;;;;;;;;;21.19;25.84;98905.00;5105639;28;20013;-85
2023/02/16 10:08:00;;;;;;;;;;;;;;;21.23;25.59;98900.25;5093685;28;20360;-85
2023/02/16 10:10:30;;;;;;;;;;;;;;;21.37;24.87;98915.44;5094849;28;19917;-86
2023/02/16 10:13:08;;;;;;;;;;;;;;;20.74;26.48;98914.00;5113469;28;19920;-85
2023/02/16 10:15:36;;;;;;;;;;;;;;;20.80;27.10;98912.41;5111604;28;19926;-86
2023/02/16 10:18:07;;;;;;;;;;;;;;;22.40;23.81;98903.91;5105168;28;19932;-85
2023/02/16 10:20:35;;;;;;;;;;;;;;;20.40;28.46;98913.41;5097806;28;19947;-86
2023/02/16 10:23:08;;;;;;;;;;;;;;;18.71;30.23;98910.94;5094060;28;19923;-85
2023/02/16 10:25:46;;;;;;;;;;;;;;;21.43;25.74;98902.66;5102311;28;19928;-84
2023/02/16 10:28:16;;;;;;;;;;;;;;;19.67;28.61;98913.63;5106833;28;19919;-83
2023/02/16 10:30:47;;;;;;;;;;;;;;;20.53;26.57;98902.72;5113485;28;20014;-83
2023/02/16 10:33:15;;;;;;;;;;;;;;;20.36;27.65;98909.00;5111793;28;19955;-84
2023/02/16 10:35:45;;;;;;;;;;;;;;;19.89;29.07;98904.25;5110335;28;20018;-84
2023/02/16 10:38:11;;;;;;;;;;;;;;;20.85;27.39;98908.44;5102187;28;19916;-83
2023/02/16 10:40:42;;;;;;;;;;;;;;;20.52;27.68;98906.69;5096604;28;20148;-84
2023/02/16 10:43:14;;;;;;;;;;;;;;;20.66;28.02;98898.41;5101708;28;19927;-84
2023/02/16 10:45:51;;;;;;;;;;;;;;;20.09;27.95;98896.44;5117002;28;19920;-84
2023/02/16 10:48:19;;;;;;;;;;;;;;;20.70;27.66;98902.00;5113427;28;20287;-84
2023/02/16 10:50:52;;;;;;;;;;;;;;;19.65;29.06;98894.47;5097332;28;19939;-84
2023/02/16 10:53:20;;;;;;;;;;;;;;;19.53;28.49;98899.56;5097355;28;20292;-83
2023/02/16 10:55:46;;;;;;;;;;;;;;;19.68;28.96;98896.50;5097172;28;19916;-83
2023/02/16 10:58:15;;;;;;;;;;;;;;;19.68;28.61;98893.72;5096944;28;19916;-83
2023/02/16 11:00:50;;;;;;;;;;;;;;;19.05;31.71;98884.69;5106261;28;19933;-84
2023/02/16 11:03:19;;;;;;;;;;;;;;;21.12;26.27;98888.22;5116044;27;19920;-84
2023/02/16 11:05:47;;;;;;;;;;;;;;;21.58;26.84;98890.34;5114709;28;19926;-84
2023/02/16 11:08:14;;;;;;;;;;;;;;;22.34;25.09;98877.53;5096692;28;20050;-83
2023/02/16 11:10:45;;;;;;;;;;;;;;;21.62;26.05;98874.34;5096605;28;19923;-84
2023/02/16 11:13:26;;;;;;;;;;;;;;;22.14;24.93;98861.59;5099088;28;19917;-85
2023/02/16 11:15:53;;;;;;;;;;;;;;;22.29;24.70;98849.97;5088766;28;19974;-85
2023/02/16 11:18:32;;;;;;;;;;;;;;;22.88;24.53;98850.97;5103129;28;19920;-84
2023/02/16 11:20:58;;;;;;;;;;;;;;;22.69;24.33;98851.47;5115718;28;19912;-82
2023/02/16 11:23:27;;;;;;;;;;;;;;;21.67;27.22;98849.63;5108156;28;19920;-86
2023/02/16 11:25:55;;;;;;;;;;;;;;;23.55;24.19;98842.16;5115636;28;19930;-86
2023/02/16 11:28:26;;;;;;;;;;;;;;;23.97;23.55;98839.00;5115271;28;19916;-85
2023/02/16 11:30:58;;;;;;;;;;;;;;;24.19;24.60;98836.81;5104678;28;19927;-85
2023/02/16 11:33:26;;;;;;;;;;;;;;;22.86;25.45;98839.38;5100053;28;19934;-86
2023/02/16 11:35:52;;;;;;;;;;;;;;;23.06;25.34;98834.88;5111438;28;19977;-86
2023/02/16 11:38:26;;;;;;;;;;;;;;;23.92;23.22;98831.03;5102143;27;19924;-86
2023/02/16 11:40:52;;;;;;;;;;;;;;;24.26;23.15;98827.53;5082082;28;19922;-88
2023/02/16 11:43:19;;;;;;;;;;;;;;;23.22;25.18;98818.34;5100435;28;20010;-87
2023/02/16 11:45:55;;;;;;;;;;;;;;;23.16;25.32;98822.00;5095561;28;20297;-87
2023/02/16 11:48:27;;;;;;;;;;;;;;;22.95;24.96;98810.94;5110552;28;19916;-87
2023/02/16 11:50:56;;;;;;;;;;;;;;;22.44;26.87;98812.34;5114090;28;19920;-86
2023/02/16 11:53:24;;;;;;;;;;;;;;;24.01;23.98;98806.09;5102509;27;19927;-87
2023/02/16 11:55:51;;;;;;;;;;;;;;;24.57;23.28;98809.53;5102942;27;20381;-87
2023/02/16 11:58:17;;;;;;;;;;;;;;;26.01;21.86;98800.94;5107299;28;19943;-87
2023/02/16 12:01:04;;;;;;;;;;;;;;;25.26;21.78;98797.75;5098550;28;19920;-85
2023/02/16 12:03:42;;;;;;;;;;;;;;;24.23;23.19;98800.28;5100937;28;19931;-84
2023/02/16 12:06:18;;;;;;;;;;;;;;;24.40;23.56;98791.69;5113491;28;19928;-87
2023/02/16 12:08:44;;;;;;;;;;;;;;;23.62;24.31;98793.69;5112186;28;20048;-87
2023/02/16 12:11:35;;;;;;;;;;;;;;;23.97;23.71;98782.91;5114250;28;19922;-89
2023/02/16 12:14:14;;;;;;;;;;;;;;;25.65;22.17;98777.47;5110453;28;19920;-87
2023/02/16 12:16:58;;;;;;;;;;;;;;;26.35;21.07;98776.16;5112192;28;19915;-88
2023/02/16 12:19:41;;;;;;;;;;;;;;;25.54;23.10;98774.84;5111415;28;19920;-88
2023/02/16 12:22:07;;;;;;;;;;;;;;;25.47;22.30;98769.34;5103103;28;19934;-87
2023/02/16 12:24:45;;;;;;;;;;;;;;;24.59;25.73;98773.41;5095183;28;19920;-88
2023/02/16 12:27:34;;;;;;;;;;;;;;;25.02;24.37;98763.19;5112276;28;20006;-87
2023/02/16 12:30:09;;;;;;;;;;;;;;;25.71;22.66;98765.31;5097564;28;19920;-88
2023/02/16 12:32:38;;;;;;;;;;;;;;;25.45;22.13;98759.72;5100640;28;20287;-88
2023/02/16 12:35:19;;;;;;;;;;;;;;;26.25;21.39;98751.84;5127245;27;19941;-88
2023/02/16 12:37:52;;;;;;;;;;;;;;;25.36;23.56;98755.44;5126959;27;20279;-86
2023/02/16 12:40:42;;;;;;;;;;;;;;;25.39;24.20;98754.56;5097246;28;20310;-87
2023/02/16 12:43:08;;;;;;;;;;;;;;;24.91;22.80;98744.91;5097296;28;19946;-86
2023/02/16 12:45:37;;;;;;;;;;;;;;;25.09;22.44;98743.41;5106874;28;20269;-86
2023/02/16 12:48:06;;;;;;;;;;;;;;;25.27;24.51;98749.56;5094960;28;19915;-89
2023/02/16 12:50:34;;;;;;;;;;;;;;;23.30;25.27;98737.84;5099529;28;19920;-88
2023/02/16 12:53:06;;;;;;;;;;;;;;;24.32;24.69;98741.69;5115412;27;19919;-89
2023/02/16 12:55:49;;;;;;;;;;;;;;;24.91;23.48;98725.22;5101618;28;19973;-88
2023/02/16 12:58:19;;;;;;;;;;;;;;;25.32;22.38;98735.00;5115155;28;19916;-88
2023/02/16 13:00:48;;;;;;;;;;;;;;;24.12;24.16;98732.28;5113089;28;20321;-88
2023/02/16 13:03:21;;;;;;;;;;;;;;;23.22;25.29;98719.53;5115432;27;19973;-88
2023/02/16 13:05:51;;;;;;;;;;;;;;;23.12;25.79;98712.00;5111758;28;19926;-87
2023/02/16 13:08:17;;;;;;;;;;;;;;;24.54;23.29;98720.53;5102447;28;19962;-88
2023/02/16 13:11:06;;;;;;;;;;;;;;;23.47;26.44;98711.72;5115271;28;19959;-87
2023/02/16 13:13:33;;;;;;;;;;;;;;;23.38;27.40;98703.78;5074641;28;19920;-87
2023/02/16 13:16:15;;;;;;;;;;;;;;;23.20;27.52;98710.72;5101693;28;19920;-88
2023/02/16 13:18:43;;;;;;;;;;;;;;;23.16;27.73;98710.75;5112354;28;19927;-87
2023/02/16 13:21:27;;;;;;;;;;;;;;;21.89;28.53;98711.44;5113161;28;19919;-87
2023/02/16 13:24:26;;;;;;;;;;;;;;;21.05;30.78;98708.75;5114328;28;19961;-87
2023/02/16 13:27:10;;;;;;;;;;;;;;;21.73;30.22;98699.88;5059938;28;19942;-87
2023/02/16 13:30:04;;;;;;;;;;;;;;;22.02;30.07;98706.22;5095136;28;19924;-87
2023/02/16 13:32:33;;;;;;;;;;;;;;;22.45;27.40;98702.00;5109897;28;20279;-87
2023/02/16 13:35:18;;;;;;;;;;;;;;;22.05;28.98;98697.03;5109264;28;19927;-87